»·PEaware :: N6423L KLAX-KSAN

N6423L :: KLAX-KSAN

FLIGHT INFORMATION

Flight Status: Arrived
Operator: Privately registered:
United States
More flights under this callsign
Pilot: Alexander M. (19327)
Aircraft: PIPER PA-34 SENECA
(PA34)
More flights by this aircraft type
Origin: KLAX Los Angeles Intl
United States
Destination: KSAN San Diego Intl-Lindbergh
United States
More flights between these airports :: More routes between these airports
Route: +
File this flight plan on PilotEdge
Remarks: C11
Altitude:
(Current/Filed)
10,500ft
Speed:
(Current/Filed)
0kts
Departed: 25-Oct-18 02:07 PM
Arrived: 25-Oct-18 03:01 PM
Distance/Time
Traveled:
95nm/0:54
Distance/Time
To Go:
Arrived

Flight Plot

Page will automatically refresh every two minutes.


Map Options




Map Legend


Flown Route
Filed Route
Departure Airport
Arrival Airport
Navaid (VOR, NDB)
Fix

Horizontal Profiles

Position Reports

Time Latitude Longitude Heading Altitude Ground
Speed
25-Oct-18 13:58 33.932893 -118.397475 305 107ft 0kts
25-Oct-18 13:59 33.932893 -118.397475 305 107ft 0kts
25-Oct-18 14:00 33.932893 -118.397475 305 107ft 0kts
25-Oct-18 14:01 33.932893 -118.397475 305 107ft 0kts
25-Oct-18 14:02 33.932893 -118.397475 305 107ft 0kts
25-Oct-18 14:03 33.934391 -118.398149 12 107ft 10kts
25-Oct-18 14:04 33.934961 -118.394226 81 107ft 20kts
25-Oct-18 14:05 33.935494 -118.389093 85 107ft 22kts
25-Oct-18 14:06 33.936017 -118.383863 82 107ft 22kts
25-Oct-18 14:07 33.936416 -118.382734 356 107ft 0kts
25-Oct-18 14:08 33.936709 -118.382775 353 107ft 13kts
25-Oct-18 14:09 33.935397 -118.401412 262 382ft 114kts
25-Oct-18 14:10 33.930524 -118.443083 262 868ft 137kts
25-Oct-18 14:11 33.926982 -118.487598 267 1401ft 134kts
25-Oct-18 14:12 33.920952 -118.528423 220 1818ft 119kts
25-Oct-18 14:13 33.888136 -118.526700 170 2138ft 114kts
25-Oct-18 14:14 33.851712 -118.517809 172 2343ft 134kts
25-Oct-18 14:15 33.813862 -118.507826 171 2163ft 131kts
25-Oct-18 14:16 33.777809 -118.498926 172 2464ft 136kts
25-Oct-18 14:17 33.738253 -118.489552 172 2482ft 149kts
25-Oct-18 14:18 33.706228 -118.459963 132 2487ft 152kts
25-Oct-18 14:19 33.679598 -118.422021 131 2489ft 152kts
25-Oct-18 14:20 33.652410 -118.383318 132 2517ft 155kts
25-Oct-18 14:21 33.624984 -118.344392 131 2522ft 161kts
25-Oct-18 14:22 33.596310 -118.303827 131 2518ft 163kts
25-Oct-18 14:23 33.567777 -118.263002 131 2523ft 161kts
25-Oct-18 14:24 33.540204 -118.223035 131 2526ft 157kts
25-Oct-18 14:25 33.512534 -118.182616 131 2529ft 166kts
25-Oct-18 14:26 33.486114 -118.144045 131 2669ft 168kts
25-Oct-18 14:27 33.456700 -118.100815 131 3012ft 172kts
25-Oct-18 14:28 33.426156 -118.055802 131 3012ft 179kts
25-Oct-18 14:29 33.395028 -118.010068 131 3019ft 180kts
25-Oct-18 14:30 33.363530 -117.964064 131 3023ft 180kts
25-Oct-18 14:31 33.331678 -117.917817 131 3025ft 183kts
25-Oct-18 14:32 33.299439 -117.871349 131 3023ft 184kts
25-Oct-18 14:33 33.266767 -117.824664 131 3018ft 185kts
25-Oct-18 14:34 33.234128 -117.778138 131 3018ft 184kts
25-Oct-18 14:35 33.201621 -117.731782 131 3018ft 183kts
25-Oct-18 14:36 33.169160 -117.685482 131 3018ft 185kts
25-Oct-18 14:37 33.136504 -117.638904 131 3018ft 185kts
25-Oct-18 14:38 33.103977 -117.592505 131 3018ft 185kts
25-Oct-18 14:39 33.071302 -117.545951 131 3017ft 185kts
25-Oct-18 14:40 33.038491 -117.499306 131 3015ft 184kts
25-Oct-18 14:41 33.005932 -117.453078 129 3013ft 184kts
25-Oct-18 14:42 32.991722 -117.395524 101 3011ft 185kts
25-Oct-18 14:43 32.982760 -117.340073 101 3008ft 185kts
25-Oct-18 14:44 32.988803 -117.282696 55 2998ft 185kts
25-Oct-18 14:45 33.015623 -117.300814 257 3006ft 147kts
25-Oct-18 14:46 33.006792 -117.344818 256 3007ft 137kts
25-Oct-18 14:47 33.027415 -117.360714 52 3048ft 140kts
25-Oct-18 14:48 33.038981 -117.322887 72 3308ft 132kts
25-Oct-18 14:49 33.016888 -117.307811 200 3505ft 126kts
25-Oct-18 14:50 32.982291 -117.315712 186 3509ft 136kts
25-Oct-18 14:51 32.945758 -117.317075 176 3509ft 139kts
25-Oct-18 14:52 32.908428 -117.310065 171 3509ft 141kts
25-Oct-18 14:53 32.875079 -117.296769 161 3508ft 142kts
25-Oct-18 14:54 32.844915 -117.271611 141 3508ft 143kts
25-Oct-18 14:55 32.823027 -117.250656 136 2478ft 106kts
25-Oct-18 14:56 32.805537 -117.225385 121 2367ft 115kts
25-Oct-18 14:57 32.788177 -117.201871 151 1558ft 101kts
25-Oct-18 14:58 32.766929 -117.196093 178 1008ft 120kts
25-Oct-18 14:59 32.752296 -117.181242 106 759ft 98kts
25-Oct-18 15:00 32.743372 -117.153294 143 1036ft 100kts
25-Oct-18 15:01 32.727806 -117.162271 273 408ft 66kts
25-Oct-18 15:02 32.732007 -117.183164 285 28ft 67kts
25-Oct-18 15:03 32.732604 -117.188549 190 19ft 0kts
25-Oct-18 15:04 32.731677 -117.190880 199 19ft 9kts
25-Oct-18 15:05 32.730519 -117.191018 294 19ft 0kts
25-Oct-18 15:06 32.730595 -117.191164 302 19ft 0kts
25-Oct-18 15:07 32.730595 -117.191164 302 19ft 0kts

Navigation Log

Ident Type
1. KLAX Airport
2. KSAN Airport